Oslund, Minnesota
Current Conditions -  °F | °C
As of 4:33 AM on Thursday 29 Jan 2015 (Local Time) from KFOZ Reporting Station
Overcast Overcast  
Wind Chill: 16°   Ceiling: 900
Heat Index: 25°   Visibility: 10mi
Dew Point: 21°   Wind: 8mph
Humidity: 86%   Direction: 320°NW
Pressure: 30.01"   Gusts: 17mph
Location:  47.5934°N, 93.8397°W
Report Text: KFOZ 291033Z AUTO 32007G15KT 293V013 10SM OVC009 M04/M06 A3001 RMK AO2 TSNO
Loading
Personal Weather Stations






























Interactive Weather Map New forecast layout! Learn more

10-Day Weather Forecast

Advertisements
Track Severe Weather on mobile